Time,TemperatureF,DewpointF,PressureIn,WindDirection,WindDirectionDegrees,WindSpeedMPH,WindSpeedGustMPH,Humidity,HourlyPrecipIn,Conditions,Clouds,dailyrainin,SoftwareType,DateUTC
2013-05-18 00:10:00,57.0,56.8,29.14,South,180,5.4,7.6,99,0.00,,,0.07,fowsr,2013-05-17 22:10:00,
2013-05-18 00:40:00,57.2,57.0,29.14,South,180,4.5,6.0,99,0.00,,,0.07,fowsr,2013-05-17 22:40:00,
2013-05-18 01:10:00,57.7,57.5,29.16,SSE,157,5.4,7.6,99,0.00,,,0.07,fowsr,2013-05-17 23:10:00,
2013-05-18 01:40:00,57.7,57.5,29.16,South,180,3.8,4.5,99,0.00,,,0.07,fowsr,2013-05-17 23:40:00,
2013-05-18 02:10:00,57.0,56.8,29.16,SE,135,1.6,3.1,99,0.00,,,0.07,fowsr,2013-05-18 00:10:00,
2013-05-18 02:40:00,56.7,56.4,29.16,South,180,3.1,5.4,99,0.00,,,0.07,fowsr,2013-05-18 00:40:00,
2013-05-18 03:10:00,55.9,55.7,29.17,SE,135,1.6,3.8,99,0.00,,,0.07,fowsr,2013-05-18 01:10:00,
2013-05-18 03:40:00,55.2,54.6,29.17,WSW,247,3.1,3.8,97,0.00,,,0.07,fowsr,2013-05-18 01:40:00,
2013-05-18 04:10:00,54.7,54.0,29.17,SSW,202,2.2,4.5,97,0.00,,,0.07,fowsr,2013-05-18 02:10:00,
2013-05-18 04:40:00,54.1,53.5,29.18,SW,225,2.2,3.1,97,0.00,,,0.07,fowsr,2013-05-18 02:40:00,
2013-05-18 05:10:00,54.0,53.3,29.19,SW,225,1.6,3.8,97,0.00,,,0.07,fowsr,2013-05-18 03:10:00,
2013-05-18 05:40:00,54.3,53.7,29.20,SW,225,2.2,3.8,97,0.00,,,0.07,fowsr,2013-05-18 03:40:00,
2013-05-18 06:10:00,55.2,54.2,29.21,SW,225,0.7,1.6,95,0.00,,,0.07,fowsr,2013-05-18 04:10:00,
2013-05-18 06:40:00,59.5,55.6,29.22,SW,225,4.5,6.0,83,0.00,,,0.07,fowsr,2013-05-18 04:40:00,
2013-05-18 07:10:00,60.6,55.6,29.24,South,180,6.9,8.3,79,0.00,,,0.07,fowsr,2013-05-18 05:10:00,
2013-05-18 08:10:00,63.9,55.6,29.25,SW,225,6.9,11.4,68,0.01,,,0.08,fowsr,2013-05-18 06:10:00,
2013-05-18 08:40:00,64.9,55.3,29.25,SE,135,12.1,18.3,64,0.04,,,0.11,fowsr,2013-05-18 06:40:00,
2013-05-18 09:10:00,66.7,54.9,29.26,South,180,8.3,14.5,58,0.02,,,0.11,fowsr,2013-05-18 07:10:00,
2013-05-18 09:40:00,68.2,55.5,29.27,North,0,6.0,14.5,56,0.02,,,0.11,fowsr,2013-05-18 07:40:00,
2013-05-18 10:10:00,68.4,54.1,29.28,South,180,7.6,14.5,52,0.00,,,0.11,fowsr,2013-05-18 08:10:00,
2013-05-18 10:40:00,69.8,54.2,29.29,SW,225,6.0,9.2,49,0.00,,,0.11,fowsr,2013-05-18 08:40:00,
2013-05-18 11:10:00,70.9,55.2,29.29,West,270,4.5,10.7,49,0.00,,,0.11,fowsr,2013-05-18 09:10:00,
2013-05-18 11:40:00,71.4,54.8,29.29,SSW,202,4.5,15.2,47,0.00,,,0.11,fowsr,2013-05-18 09:40:00,
2013-05-18 12:10:00,73.0,53.9,29.30,SW,225,3.1,5.4,42,0.00,,,0.11,fowsr,2013-05-18 10:10:00,
2013-05-18 12:40:00,72.7,52.6,29.31,South,180,10.7,13.0,40,0.00,,,0.11,fowsr,2013-05-18 10:40:00,
2013-05-18 13:10:00,73.4,54.2,29.31,SW,225,8.3,13.6,42,0.00,,,0.11,fowsr,2013-05-18 11:10:00,
2013-05-18 13:40:00,74.1,52.8,29.31,SW,225,11.4,15.9,38,0.00,,,0.11,fowsr,2013-05-18 11:40:00,
2013-05-18 14:10:00,74.5,54.7,29.31,SW,225,9.8,13.0,41,0.00,,,0.11,fowsr,2013-05-18 12:10:00,
2013-05-18 14:40:00,76.5,54.8,29.32,SW,225,2.2,4.5,38,0.00,,,0.11,fowsr,2013-05-18 12:40:00,
2013-05-18 15:10:00,77.5,52.8,29.31,South,180,3.8,6.9,33,0.00,,,0.11,fowsr,2013-05-18 13:10:00,
2013-05-18 15:40:00,75.2,56.3,29.31,SE,135,4.5,7.6,43,0.00,,,0.11,fowsr,2013-05-18 13:40:00,
2013-05-18 16:10:00,74.7,56.3,29.31,SE,135,4.5,9.2,44,0.00,,,0.11,fowsr,2013-05-18 14:10:00,
2013-05-18 16:40:00,78.4,56.0,29.31,SW,225,5.4,10.7,37,0.00,,,0.11,fowsr,2013-05-18 14:40:00,
2013-05-18 17:10:00,74.8,56.0,29.31,South,180,3.8,6.0,43,0.00,,,0.11,fowsr,2013-05-18 15:10:00,
2013-05-18 17:40:00,74.5,55.2,29.31,SE,135,6.9,9.8,42,0.00,,,0.11,fowsr,2013-05-18 15:40:00,
2013-05-18 18:10:00,72.7,53.1,29.31,SSW,202,5.4,9.2,41,0.00,,,0.11,fowsr,2013-05-18 16:10:00,
2013-05-18 18:40:00,75.2,55.3,29.31,SW,225,5.4,9.2,41,0.00,,,0.11,fowsr,2013-05-18 16:40:00,
2013-05-18 19:10:00,73.4,54.7,29.31,SW,225,2.2,6.0,43,0.00,,,0.11,fowsr,2013-05-18 17:10:00,
2013-05-18 19:40:00,71.4,53.9,29.32,SW,225,2.2,3.1,45,0.00,,,0.11,fowsr,2013-05-18 17:40:00,
2013-05-18 20:10:00,67.6,53.9,29.32,West,270,0.0,0.7,53,0.00,,,0.11,fowsr,2013-05-18 18:10:00,
2013-05-18 20:40:00,65.1,53.4,29.32,SW,225,0.0,0.0,58,0.00,,,0.11,fowsr,2013-05-18 18:40:00,
2013-05-18 21:10:00,63.9,53.0,29.33,West,270,0.0,0.7,60,0.00,,,0.11,fowsr,2013-05-18 19:10:00,
2013-05-18 21:40:00,62.2,53.1,29.32,West,270,0.0,0.0,65,0.00,,,0.08,fowsr,2013-05-18 19:40:00,
2013-05-18 22:10:00,62.1,53.5,29.33,SW,225,0.0,0.7,67,0.00,,,0.05,fowsr,2013-05-18 20:10:00,
2013-05-18 22:40:00,61.5,53.6,29.32,South,180,0.0,0.0,69,0.00,,,0.05,fowsr,2013-05-18 20:40:00,
2013-05-18 23:10:00,60.8,53.0,29.32,SW,225,0.0,0.0,69,0.00,,,0.04,fowsr,2013-05-18 21:10:00,
2013-05-18 23:40:00,59.7,52.8,29.32,West,270,0.0,0.7,72,0.00,,,0.04,fowsr,2013-05-18 21:40:00,